Time,TemperatureF,DewpointF,PressureIn,WindDirection,WindDirectionDegrees,WindSpeedMPH,WindSpeedGustMPH,Humidity,HourlyPrecipIn,Conditions,Clouds,dailyrainin,SolarRadiationWatts/m^2,SoftwareType,DateUTC
2013-02-17 00:01:00,43.0,38.0,30.31,West,275,8.0,14.0,80,-99.99,,,0.01,0.000000,,2013-02-17 08:01:00,
2013-02-17 00:11:00,43.0,38.0,30.31,West,275,8.0,14.0,80,-99.99,,,0.01,0.000000,,2013-02-17 08:11:00,
2013-02-17 00:42:00,43.0,38.0,30.32,West,266,8.0,16.0,81,-99.99,,,0.01,0.000000,,2013-02-17 08:42:00,
2013-02-17 00:52:00,43.0,38.0,30.32,West,266,8.0,16.0,81,-99.99,,,0.01,0.000000,,2013-02-17 08:52:00,
2013-02-17 01:01:00,43.0,38.0,30.32,West,266,8.0,16.0,81,-99.99,,,0.01,0.000000,,2013-02-17 09:01:00,
2013-02-17 01:11:00,43.0,38.0,30.32,West,266,8.0,16.0,81,-99.99,,,0.01,0.000000,,2013-02-17 09:11:00,
2013-02-17 01:41:00,42.0,38.0,30.33,West,269,5.0,10.0,84,-99.99,,,0.01,0.000000,,2013-02-17 09:41:00,
2013-02-17 01:52:00,42.0,38.0,30.33,West,269,5.0,10.0,84,-99.99,,,0.01,0.000000,,2013-02-17 09:52:00,
2013-02-17 02:01:00,42.0,38.0,30.33,West,269,5.0,10.0,84,-99.99,,,0.01,0.000000,,2013-02-17 10:01:00,
2013-02-17 02:11:00,42.0,38.0,30.33,West,269,5.0,10.0,84,-99.99,,,0.01,0.000000,,2013-02-17 10:11:00,
2013-02-17 02:41:00,42.0,38.0,30.33,West,266,7.0,12.0,86,-99.99,,,0.01,0.000000,,2013-02-17 10:41:00,
2013-02-17 02:52:00,42.0,38.0,30.33,West,266,7.0,12.0,86,-99.99,,,0.01,0.000000,,2013-02-17 10:52:00,
2013-02-17 03:01:00,42.0,38.0,30.33,West,266,7.0,12.0,86,-99.99,,,0.01,0.000000,,2013-02-17 11:01:00,
2013-02-17 03:11:00,42.0,38.0,30.33,West,266,7.0,12.0,86,-99.99,,,0.01,0.000000,,2013-02-17 11:11:00,
2013-02-17 03:42:00,41.0,37.0,30.34,West,268,7.0,11.0,84,-99.99,,,-99.99,0.000000,,2013-02-17 11:42:00,
2013-02-17 03:52:00,41.0,37.0,30.34,West,268,7.0,11.0,84,-99.99,,,-99.99,0.000000,,2013-02-17 11:52:00,
2013-02-17 04:02:00,41.0,37.0,30.34,West,268,7.0,11.0,84,-99.99,,,-99.99,0.000000,,2013-02-17 12:02:00,
2013-02-17 04:11:00,41.0,37.0,30.34,West,268,7.0,11.0,84,-99.99,,,-99.99,0.000000,,2013-02-17 12:11:00,
2013-02-17 04:42:00,41.0,37.0,30.33,West,270,5.0,11.0,86,-99.99,,,0.01,0.000000,,2013-02-17 12:42:00,
2013-02-17 04:52:00,41.0,37.0,30.33,West,270,5.0,11.0,86,-99.99,,,0.01,0.000000,,2013-02-17 12:52:00,
2013-02-17 05:02:00,41.0,37.0,30.33,West,270,5.0,11.0,86,-99.99,,,0.01,0.000000,,2013-02-17 13:02:00,
2013-02-17 05:11:00,41.0,37.0,30.33,West,270,5.0,11.0,86,-99.99,,,0.01,0.000000,,2013-02-17 13:11:00,
2013-02-17 06:42:00,40.0,37.0,30.32,West,280,5.0,10.0,88,-99.99,,,0.01,0.000000,,2013-02-17 14:42:00,
2013-02-17 06:53:00,40.0,37.0,30.32,West,280,5.0,10.0,88,-99.99,,,0.01,0.000000,,2013-02-17 14:53:00,
2013-02-17 07:01:00,40.0,37.0,30.32,West,280,5.0,10.0,88,-99.99,,,0.01,0.000000,,2013-02-17 15:01:00,
2013-02-17 07:11:00,40.0,37.0,30.32,West,280,5.0,10.0,88,-99.99,,,0.01,0.000000,,2013-02-17 15:11:00,
2013-02-17 07:41:00,40.0,34.0,30.32,South,174,3.0,8.0,81,-99.99,,,0.01,3.950000,,2013-02-17 15:41:00,
2013-02-17 07:52:00,40.0,34.0,30.32,South,174,3.0,8.0,81,-99.99,,,0.01,3.950000,,2013-02-17 15:52:00,
2013-02-17 08:01:00,40.0,34.0,30.32,South,174,3.0,8.0,81,-99.99,,,0.01,3.950000,,2013-02-17 16:01:00,
2013-02-17 08:11:00,40.0,34.0,30.32,South,174,3.0,8.0,81,-99.99,,,0.01,3.950000,,2013-02-17 16:11:00,
2013-02-17 08:41:00,40.0,37.0,30.33,WNW,292,4.0,7.0,89,-99.99,,,0.01,52.070000,,2013-02-17 16:41:00,
2013-02-17 08:52:00,40.0,37.0,30.33,WNW,292,4.0,7.0,89,-99.99,,,0.01,52.070000,,2013-02-17 16:52:00,
2013-02-17 09:02:00,40.0,37.0,30.33,WNW,292,4.0,7.0,89,-99.99,,,0.01,52.070000,,2013-02-17 17:02:00,
2013-02-17 09:11:00,40.0,37.0,30.33,WNW,292,4.0,7.0,89,-99.99,,,0.01,52.070000,,2013-02-17 17:11:00,
2013-02-17 09:41:00,42.0,37.0,30.33,West,267,7.0,12.0,81,-99.99,,,0.01,140.860001,,2013-02-17 17:41:00,
2013-02-17 09:52:00,42.0,37.0,30.33,West,267,7.0,12.0,81,-99.99,,,0.01,140.860001,,2013-02-17 17:52:00,
2013-02-17 10:01:00,42.0,37.0,30.33,West,267,7.0,12.0,81,-99.99,,,0.01,140.860001,,2013-02-17 18:01:00,
2013-02-17 10:11:00,42.0,37.0,30.33,West,267,7.0,12.0,81,-99.99,,,0.01,140.860001,,2013-02-17 18:11:00,
2013-02-17 10:42:00,42.0,37.0,30.33,WSW,253,6.0,13.0,81,-99.99,,,0.01,156.429993,,2013-02-17 18:42:00,
2013-02-17 10:52:00,42.0,37.0,30.33,WSW,253,6.0,13.0,81,-99.99,,,0.01,156.429993,,2013-02-17 18:52:00,
2013-02-17 11:01:00,42.0,37.0,30.33,WSW,253,6.0,13.0,81,-99.99,,,0.01,156.429993,,2013-02-17 19:01:00,
2013-02-17 11:11:00,42.0,37.0,30.33,WSW,253,6.0,13.0,81,-99.99,,,0.01,156.429993,,2013-02-17 19:11:00,
2013-02-17 11:41:00,44.0,37.0,30.32,West,259,6.0,11.0,76,-99.99,,,0.01,266.720001,,2013-02-17 19:41:00,
2013-02-17 11:52:00,44.0,37.0,30.32,West,259,6.0,11.0,76,-99.99,,,0.01,266.720001,,2013-02-17 19:52:00,
2013-02-17 12:01:00,44.0,37.0,30.32,West,259,6.0,11.0,76,-99.99,,,0.01,266.720001,,2013-02-17 20:01:00,
2013-02-17 12:11:00,44.0,37.0,30.32,West,259,6.0,11.0,76,-99.99,,,0.01,266.720001,,2013-02-17 20:11:00,
2013-02-17 12:42:00,46.0,37.0,30.31,WSW,246,5.0,9.0,72,-99.99,,,0.01,328.320007,,2013-02-17 20:42:00,
2013-02-17 12:52:00,46.0,37.0,30.31,WSW,246,5.0,9.0,72,-99.99,,,0.01,328.320007,,2013-02-17 20:52:00,
2013-02-17 13:01:00,46.0,37.0,30.31,WSW,246,5.0,9.0,72,-99.99,,,0.01,328.320007,,2013-02-17 21:01:00,
2013-02-17 13:11:00,46.0,37.0,30.31,WSW,246,5.0,9.0,72,-99.99,,,0.01,328.320007,,2013-02-17 21:11:00,
2013-02-17 13:41:00,45.0,35.0,30.30,WSW,252,3.0,7.0,68,-99.99,,,0.01,163.520004,,2013-02-17 21:41:00,
2013-02-17 13:53:00,45.0,35.0,30.30,WSW,252,3.0,7.0,68,-99.99,,,0.01,163.520004,,2013-02-17 21:53:00,
2013-02-17 14:01:00,45.0,35.0,30.30,WSW,252,3.0,7.0,68,-99.99,,,0.01,163.520004,,2013-02-17 22:01:00,
2013-02-17 14:11:00,45.0,35.0,30.30,WSW,252,3.0,7.0,68,-99.99,,,0.01,163.520004,,2013-02-17 22:11:00,
2013-02-17 14:41:00,44.0,35.0,30.29,WSW,249,5.0,9.0,69,-99.99,,,0.00,83.559998,,2013-02-17 22:41:00,
2013-02-17 14:52:00,44.0,35.0,30.29,WSW,249,5.0,9.0,69,-99.99,,,0.00,83.559998,,2013-02-17 22:52:00,
2013-02-17 15:01:00,44.0,35.0,30.29,WSW,249,5.0,9.0,69,-99.99,,,0.00,83.559998,,2013-02-17 23:01:00,
2013-02-17 15:11:00,44.0,35.0,30.29,WSW,249,5.0,9.0,69,-99.99,,,0.00,83.559998,,2013-02-17 23:11:00,
2013-02-17 15:42:00,45.0,35.0,30.27,WSW,256,3.0,5.0,68,-99.99,,,0.00,87.980003,,2013-02-17 23:42:00,
2013-02-17 15:52:00,45.0,35.0,30.27,WSW,256,3.0,5.0,68,-99.99,,,0.00,87.980003,,2013-02-17 23:52:00,
2013-02-17 16:01:00,45.0,35.0,30.27,WSW,256,3.0,5.0,68,-99.99,,,0.00,87.980003,,2013-02-18 00:01:00,
2013-02-17 16:11:00,45.0,35.0,30.27,WSW,256,3.0,5.0,68,-99.99,,,0.00,87.980003,,2013-02-18 00:11:00,
2013-02-17 16:41:00,45.0,35.0,30.27,WSW,250,4.0,6.0,67,-99.99,,,0.00,64.389999,,2013-02-18 00:41:00,
2013-02-17 16:52:00,45.0,35.0,30.27,WSW,250,4.0,6.0,67,-99.99,,,0.00,64.389999,,2013-02-18 00:52:00,
2013-02-17 17:01:00,45.0,35.0,30.27,WSW,250,4.0,6.0,67,-99.99,,,0.00,64.389999,,2013-02-18 01:01:00,
2013-02-17 17:11:00,45.0,35.0,30.27,WSW,250,4.0,6.0,67,-99.99,,,0.00,64.389999,,2013-02-18 01:11:00,
2013-02-17 18:41:00,42.0,36.0,30.23,SSE,149,3.0,7.0,77,-99.99,,,-99.99,0.000000,,2013-02-18 02:41:00,
2013-02-17 18:52:00,42.0,36.0,30.23,SSE,149,3.0,7.0,77,-99.99,,,-99.99,0.000000,,2013-02-18 02:52:00,
2013-02-17 19:01:00,42.0,36.0,30.23,SSE,149,3.0,7.0,77,-99.99,,,-99.99,0.000000,,2013-02-18 03:01:00,
2013-02-17 19:11:00,42.0,36.0,30.23,SSE,149,3.0,7.0,77,-99.99,,,-99.99,0.000000,,2013-02-18 03:11:00,
2013-02-17 19:42:00,41.0,34.0,30.22,SSE,158,4.0,13.0,78,-99.99,,,0.00,0.000000,,2013-02-18 03:42:00,
2013-02-17 19:52:00,41.0,34.0,30.22,SSE,158,4.0,13.0,78,-99.99,,,0.00,0.000000,,2013-02-18 03:52:00,
2013-02-17 20:01:00,41.0,34.0,30.22,SSE,158,4.0,13.0,78,-99.99,,,0.00,0.000000,,2013-02-18 04:01:00,
2013-02-17 20:11:00,41.0,34.0,30.22,SSE,158,4.0,13.0,78,-99.99,,,0.00,0.000000,,2013-02-18 04:11:00,
2013-02-17 20:41:00,39.0,34.0,30.22,East,89,1.0,5.0,80,-99.99,,,0.00,0.000000,,2013-02-18 04:41:00,
2013-02-17 20:52:00,39.0,34.0,30.22,East,89,1.0,5.0,80,-99.99,,,0.00,0.000000,,2013-02-18 04:52:00,
2013-02-17 21:01:00,39.0,34.0,30.22,East,89,1.0,5.0,80,-99.99,,,0.00,0.000000,,2013-02-18 05:01:00,
2013-02-17 21:11:00,39.0,34.0,30.22,East,89,1.0,5.0,80,-99.99,,,0.00,0.000000,,2013-02-18 05:11:00,
2013-02-17 21:41:00,37.0,34.0,30.21,NE,42,1.0,3.0,87,-99.99,,,0.00,0.000000,,2013-02-18 05:41:00,
2013-02-17 21:52:00,37.0,34.0,30.21,NE,42,1.0,3.0,87,-99.99,,,0.00,0.000000,,2013-02-18 05:52:00,
2013-02-17 22:02:00,37.0,34.0,30.21,NE,42,1.0,3.0,87,-99.99,,,0.00,0.000000,,2013-02-18 06:02:00,
2013-02-17 22:11:00,37.0,34.0,30.21,NE,42,1.0,3.0,87,-99.99,,,0.00,0.000000,,2013-02-18 06:11:00,
2013-02-17 22:41:00,36.0,34.0,30.20,NE,52,2.0,4.0,90,-99.99,,,0.00,0.000000,,2013-02-18 06:41:00,
2013-02-17 22:52:00,36.0,34.0,30.20,NE,52,2.0,4.0,90,-99.99,,,0.00,0.000000,,2013-02-18 06:52:00,
2013-02-17 23:01:00,36.0,34.0,30.20,NE,52,2.0,4.0,90,-99.99,,,0.00,0.000000,,2013-02-18 07:01:00,
2013-02-17 23:11:00,36.0,34.0,30.20,NE,52,2.0,4.0,90,-99.99,,,0.00,0.000000,,2013-02-18 07:11:00,
2013-02-17 23:42:00,36.0,33.0,30.18,ENE,61,3.0,4.0,90,-99.99,,,0.00,0.000000,,2013-02-18 07:42:00,
2013-02-17 23:52:00,36.0,33.0,30.18,ENE,61,3.0,4.0,90,-99.99,,,0.00,0.000000,,2013-02-18 07:52:00,